^^
Your Local Weather - Clay, NY Station Historical Data
Daily Summary for March 7, 2018 Units:  Both    English   Metric
« Previous Day
Next Day »
Daily Weekly Monthly Yearly Custom
  High: Low: Average:
Temperature: 34.2 °F /  1.2 °C 31.7 °F /  -0.2 °C 32.8 °F /  0.4 °C
Dew Point: 31.8 °F /  -0.1 °C 28.0 °F /  -2.2 °C 29.6 °F /  -1.3 °C
Humidity: 93% 84% 88%
Wind Speed: 6.0mph /  9.7km/h - 2.5mph /  4km/h
Wind Gust: 11.0mph /  17.7km/h - -
Wind- - East
Pressure: 29.82 in /  1009.7 hPa 29.71 in /  1006 hPa -
Precipitation: 0.07 in /  1.78 mm    
Historical Graphs
 
 
Tabular Data for March 7, 2018
Time Temperature Dew Point Pressure Wind Wind Speed Wind Gust Humidity Rainfall Rate (Hourly) solar
00:00 32.3 °F /  0.2 °C 30.0 °F /  -1.1 °C 29.82in /  1009.7hPa Calm   1.0mph /  1.6km/h 91% 0.00in /  0mm 0 W/m2
00:06 32.3 °F /  0.2 °C 30.0 °F /  -1.1 °C 29.82in /  1009.7hPa Calm   2.0mph /  3.2km/h 91% 0.00in /  0mm 0 W/m2
00:12 32.4 °F /  0.2 °C 30.1 °F /  -1.1 °C 29.82in /  1009.7hPa Calm   1.0mph /  1.6km/h 91% 0.00in /  0mm 0 W/m2
00:18 32.4 °F /  0.2 °C 30.1 °F /  -1.1 °C 29.82in /  1009.7hPa SE 1.0mph /  1.6km/h 3.0mph /  4.8km/h 91% 0.00in /  0mm 0 W/m2
00:24 32.4 °F /  0.2 °C 30.1 °F /  -1.1 °C 29.82in /  1009.7hPa ESE 2.0mph /  3.2km/h 2.0mph /  3.2km/h 91% 0.00in /  0mm 0 W/m2
00:30 32.4 °F /  0.2 °C 30.1 °F /  -1.1 °C 29.82in /  1009.7hPa East 1.0mph /  1.6km/h 2.0mph /  3.2km/h 91% 0.00in /  0mm 0 W/m2
00:36 32.5 °F /  0.3 °C 30.4 °F /  -0.9 °C 29.82in /  1009.7hPa ESE 1.0mph /  1.6km/h 3.0mph /  4.8km/h 92% 0.00in /  0mm 0 W/m2
00:42 32.5 °F /  0.3 °C 30.4 °F /  -0.9 °C 29.81in /  1009.4hPa East 2.0mph /  3.2km/h 2.0mph /  3.2km/h 92% 0.00in /  0mm 0 W/m2
00:48 32.6 °F /  0.3 °C 30.5 °F /  -0.8 °C 29.81in /  1009.4hPa ENE 2.0mph /  3.2km/h 2.0mph /  3.2km/h 92% 0.00in /  0mm 0 W/m2
00:54 32.6 °F /  0.3 °C 30.5 °F /  -0.8 °C 29.80in /  1009hPa East 2.0mph /  3.2km/h 5.0mph /  8km/h 92% 0.00in /  0mm 0 W/m2
01:00 32.7 °F /  0.4 °C 30.6 °F /  -0.8 °C 29.80in /  1009hPa East 2.0mph /  3.2km/h 2.0mph /  3.2km/h 92% 0.00in /  0mm 0 W/m2
01:06 32.7 °F /  0.4 °C 30.6 °F /  -0.8 °C 29.79in /  1008.7hPa ENE 1.0mph /  1.6km/h 2.0mph /  3.2km/h 92% 0.00in /  0mm 0 W/m2
01:12 32.8 °F /  0.4 °C 30.7 °F /  -0.7 °C 29.79in /  1008.7hPa ENE 1.0mph /  1.6km/h 2.0mph /  3.2km/h 92% 0.00in /  0mm 0 W/m2
01:18 32.9 °F /  0.5 °C 30.8 °F /  -0.7 °C 29.79in /  1008.7hPa ENE 1.0mph /  1.6km/h 2.0mph /  3.2km/h 92% 0.00in /  0mm 0 W/m2
01:24 32.8 °F /  0.4 °C 30.7 °F /  -0.7 °C 29.79in /  1008.7hPa Calm   1.0mph /  1.6km/h 92% 0.00in /  0mm 0 W/m2
01:30 32.9 °F /  0.5 °C 30.8 °F /  -0.7 °C 29.79in /  1008.7hPa Calm     92% 0.00in /  0mm 0 W/m2
01:36 32.9 °F /  0.5 °C 30.8 °F /  -0.7 °C 29.79in /  1008.7hPa Calm     92% 0.00in /  0mm 0 W/m2
01:42 33.0 °F /  0.6 °C 30.9 °F /  -0.6 °C 29.79in /  1008.7hPa ENE 1.0mph /  1.6km/h 1.0mph /  1.6km/h 92% 0.00in /  0mm 0 W/m2
01:48 33.1 °F /  0.6 °C 31.0 °F /  -0.6 °C 29.79in /  1008.7hPa ENE 1.0mph /  1.6km/h 2.0mph /  3.2km/h 92% 0.00in /  0mm 0 W/m2
01:54 33.1 °F /  0.6 °C 31.0 °F /  -0.6 °C 29.78in /  1008.4hPa SE 1.0mph /  1.6km/h 3.0mph /  4.8km/h 92% 0.00in /  0mm 0 W/m2
02:00 33.1 °F /  0.6 °C 31.0 °F /  -0.6 °C 29.79in /  1008.7hPa East 1.0mph /  1.6km/h 1.0mph /  1.6km/h 92% 0.00in /  0mm 0 W/m2
02:06 33.2 °F /  0.7 °C 31.1 °F /  -0.5 °C 29.78in /  1008.4hPa SE 1.0mph /  1.6km/h 3.0mph /  4.8km/h 92% 0.00in /  0mm 0 W/m2
02:12 33.2 °F /  0.7 °C 31.1 °F /  -0.5 °C 29.77in /  1008hPa East 1.0mph /  1.6km/h 1.0mph /  1.6km/h 92% 0.00in /  0mm 0 W/m2
02:18 33.2 °F /  0.7 °C 31.1 °F /  -0.5 °C 29.78in /  1008.4hPa East 1.0mph /  1.6km/h 2.0mph /  3.2km/h 92% 0.00in /  0mm 0 W/m2
02:24 33.2 °F /  0.7 °C 31.1 °F /  -0.5 °C 29.78in /  1008.4hPa East 1.0mph /  1.6km/h 2.0mph /  3.2km/h 92% 0.00in /  0mm 0 W/m2
02:30 33.3 °F /  0.7 °C 31.2 °F /  -0.4 °C 29.78in /  1008.4hPa ESE 1.0mph /  1.6km/h 1.0mph /  1.6km/h 92% 0.00in /  0mm 0 W/m2
02:36 33.3 °F /  0.7 °C 31.2 °F /  -0.4 °C 29.78in /  1008.4hPa East 1.0mph /  1.6km/h 2.0mph /  3.2km/h 92% 0.00in /  0mm 0 W/m2
02:42 33.3 °F /  0.7 °C 31.2 °F /  -0.4 °C 29.78in /  1008.4hPa East 1.0mph /  1.6km/h 1.0mph /  1.6km/h 92% 0.00in /  0mm 0 W/m2
02:48 33.4 °F /  0.8 °C 31.3 °F /  -0.4 °C 29.79in /  1008.7hPa ESE 1.0mph /  1.6km/h 5.0mph /  8km/h 92% 0.00in /  0mm 0 W/m2
02:54 33.4 °F /  0.8 °C 31.6 °F /  -0.2 °C 29.79in /  1008.7hPa ENE 2.0mph /  3.2km/h 4.0mph /  6.4km/h 93% 0.00in /  0mm 0 W/m2
03:00 33.6 °F /  0.9 °C 31.8 °F /  -0.1 °C 29.78in /  1008.4hPa East 2.0mph /  3.2km/h 2.0mph /  3.2km/h 93% 0.00in /  0mm 0 W/m2
03:06 33.7 °F /  0.9 °C 31.6 °F /  -0.2 °C 29.78in /  1008.4hPa ESE 3.0mph /  4.8km/h 3.0mph /  4.8km/h 92% 0.00in /  0mm 0 W/m2
03:12 33.8 °F /  1 °C 31.7 °F /  -0.2 °C 29.78in /  1008.4hPa ENE 2.0mph /  3.2km/h 4.0mph /  6.4km/h 92% 0.00in /  0mm 0 W/m2
03:18 33.8 °F /  1 °C 31.7 °F /  -0.2 °C 29.77in /  1008hPa East 2.0mph /  3.2km/h 4.0mph /  6.4km/h 92% 0.00in /  0mm 0 W/m2
03:24 33.8 °F /  1 °C 31.7 °F /  -0.2 °C 29.77in /  1008hPa East 2.0mph /  3.2km/h 5.0mph /  8km/h 92% 0.00in /  0mm 0 W/m2
03:30 33.8 °F /  1 °C 31.7 °F /  -0.2 °C 29.77in /  1008hPa East 3.0mph /  4.8km/h 3.0mph /  4.8km/h 92% 0.00in /  0mm 0 W/m2
03:36 33.9 °F /  1.1 °C 31.8 °F /  -0.1 °C 29.77in /  1008hPa ESE 3.0mph /  4.8km/h 5.0mph /  8km/h 92% 0.00in /  0mm 0 W/m2
03:42 33.9 °F /  1.1 °C 31.8 °F /  -0.1 °C 29.77in /  1008hPa ENE 3.0mph /  4.8km/h 3.0mph /  4.8km/h 92% 0.00in /  0mm 0 W/m2
03:48 33.9 °F /  1.1 °C 31.6 °F /  -0.2 °C 29.77in /  1008hPa East 2.0mph /  3.2km/h 3.0mph /  4.8km/h 91% 0.00in /  0mm 0 W/m2
03:54 33.8 °F /  1 °C 31.5 °F /  -0.3 °C 29.77in /  1008hPa Calm   3.0mph /  4.8km/h 91% 0.00in /  0mm 0 W/m2
04:00 33.9 °F /  1.1 °C 31.6 °F /  -0.2 °C 29.77in /  1008hPa East 2.0mph /  3.2km/h 2.0mph /  3.2km/h 91% 0.00in /  0mm 0 W/m2
04:06 33.9 °F /  1.1 °C 31.3 °F /  -0.4 °C 29.77in /  1008hPa ESE 3.0mph /  4.8km/h 3.0mph /  4.8km/h 90% 0.00in /  0mm 0 W/m2
04:12 34.0 °F /  1.1 °C 31.4 °F /  -0.3 °C 29.77in /  1008hPa SE 2.0mph /  3.2km/h 5.0mph /  8km/h 90% 0.00in /  0mm 0 W/m2
04:18 34.0 °F /  1.1 °C 31.4 °F /  -0.3 °C 29.77in /  1008hPa SE 2.0mph /  3.2km/h 5.0mph /  8km/h 90% 0.00in /  0mm 0 W/m2
04:24 34.0 °F /  1.1 °C 31.1 °F /  -0.5 °C 29.77in /  1008hPa SSE 3.0mph /  4.8km/h 4.0mph /  6.4km/h 89% 0.00in /  0mm 0 W/m2
04:34 34.1 °F /  1.2 °C 30.9 °F /  -0.6 °C 29.77in /  1008hPa ESE 3.0mph /  4.8km/h 4.0mph /  6.4km/h 88% 0.00in /  0mm 0 W/m2
04:40 34.2 °F /  1.2 °C 31.0 °F /  -0.6 °C 29.77in /  1008hPa SSE 3.0mph /  4.8km/h 3.0mph /  4.8km/h 88% 0.00in /  0mm 0 W/m2
04:46 34.2 °F /  1.2 °C 30.7 °F /  -0.7 °C 29.77in /  1008hPa East 2.0mph /  3.2km/h 5.0mph /  8km/h 87% 0.00in /  0mm 0 W/m2
04:52 34.2 °F /  1.2 °C 30.7 °F /  -0.7 °C 29.77in /  1008hPa SE 2.0mph /  3.2km/h 3.0mph /  4.8km/h 87% 0.00in /  0mm 0 W/m2
04:58 34.2 °F /  1.2 °C 30.7 °F /  -0.7 °C 29.77in /  1008hPa ESE 2.0mph /  3.2km/h 3.0mph /  4.8km/h 87% 0.00in /  0mm 0 W/m2
05:04 34.1 °F /  1.2 °C 30.6 °F /  -0.8 °C 29.77in /  1008hPa ESE 1.0mph /  1.6km/h 2.0mph /  3.2km/h 87% 0.00in /  0mm 0 W/m2
05:10 34.0 °F /  1.1 °C 30.5 °F /  -0.8 °C 29.77in /  1008hPa East 2.0mph /  3.2km/h 2.0mph /  3.2km/h 87% 0.00in /  0mm 0 W/m2
05:16 33.9 °F /  1.1 °C 30.4 °F /  -0.9 °C 29.77in /  1008hPa East 2.0mph /  3.2km/h 2.0mph /  3.2km/h 87% 0.00in /  0mm 0 W/m2
05:22 33.8 °F /  1 °C 30.3 °F /  -0.9 °C 29.77in /  1008hPa ESE 1.0mph /  1.6km/h 1.0mph /  1.6km/h 87% 0.00in /  0mm 0 W/m2
05:28 33.8 °F /  1 °C 30.3 °F /  -0.9 °C 29.77in /  1008hPa ESE 1.0mph /  1.6km/h 2.0mph /  3.2km/h 87% 0.00in /  0mm 0 W/m2
05:34 33.8 °F /  1 °C 30.3 °F /  -0.9 °C 29.77in /  1008hPa ESE 1.0mph /  1.6km/h 2.0mph /  3.2km/h 87% 0.00in /  0mm 0 W/m2
05:40 33.7 °F /  0.9 °C 30.5 °F /  -0.8 °C 29.77in /  1008hPa ENE 2.0mph /  3.2km/h 2.0mph /  3.2km/h 88% 0.00in /  0mm 0 W/m2
05:46 33.7 °F /  0.9 °C 30.5 °F /  -0.8 °C 29.77in /  1008hPa ESE 2.0mph /  3.2km/h 2.0mph /  3.2km/h 88% 0.00in /  0mm 0 W/m2
05:52 33.7 °F /  0.9 °C 30.5 °F /  -0.8 °C 29.77in /  1008hPa ENE 1.0mph /  1.6km/h 2.0mph /  3.2km/h 88% 0.00in /  0mm 0 W/m2
05:58 33.6 °F /  0.9 °C 30.4 °F /  -0.9 °C 29.77in /  1008hPa East 1.0mph /  1.6km/h 4.0mph /  6.4km/h 88% 0.00in /  0mm 0 W/m2
06:04 33.4 °F /  0.8 °C 30.2 °F /  -1 °C 29.77in /  1008hPa NE 2.0mph /  3.2km/h 3.0mph /  4.8km/h 88% 0.00in /  0mm 0 W/m2
06:10 33.3 °F /  0.7 °C 30.4 °F /  -0.9 °C 29.77in /  1008hPa ENE 2.0mph /  3.2km/h 2.0mph /  3.2km/h 89% 0.00in /  0mm 0 W/m2
06:16 33.1 °F /  0.6 °C 30.2 °F /  -1 °C 29.77in /  1008hPa East 3.0mph /  4.8km/h 3.0mph /  4.8km/h 89% 0.00in /  0mm 0 W/m2
06:22 33.0 °F /  0.6 °C 30.4 °F /  -0.9 °C 29.77in /  1008hPa East 4.0mph /  6.4km/h 4.0mph /  6.4km/h 90% 0.00in /  0mm 0 W/m2
06:28 32.9 °F /  0.5 °C 30.3 °F /  -0.9 °C 29.77in /  1008hPa ENE 3.0mph /  4.8km/h 7.0mph /  11.3km/h 90% 0.00in /  0mm 0 W/m2
06:34 32.9 °F /  0.5 °C 30.3 °F /  -0.9 °C 29.77in /  1008hPa East 3.0mph /  4.8km/h 3.0mph /  4.8km/h 90% 0.00in /  0mm 0 W/m2
06:40 32.8 °F /  0.4 °C 30.2 °F /  -1 °C 29.77in /  1008hPa ENE 2.0mph /  3.2km/h 3.0mph /  4.8km/h 90% 0.00in /  0mm 0 W/m2
06:46 32.8 °F /  0.4 °C 30.2 °F /  -1 °C 29.77in /  1008hPa East 3.0mph /  4.8km/h 7.0mph /  11.3km/h 90% 0.00in /  0mm 0 W/m2
06:52 32.7 °F /  0.4 °C 30.1 °F /  -1.1 °C 29.76in /  1007.7hPa ENE 3.0mph /  4.8km/h 8.0mph /  12.9km/h 90% 0.00in /  0mm 0 W/m2
06:58 32.6 °F /  0.3 °C 30.0 °F /  -1.1 °C 29.76in /  1007.7hPa ENE 4.0mph /  6.4km/h 8.0mph /  12.9km/h 90% 0.00in /  0mm 0 W/m2
07:04 32.6 °F /  0.3 °C 30.0 °F /  -1.1 °C 29.77in /  1008hPa ENE 4.0mph /  6.4km/h 8.0mph /  12.9km/h 90% 0.00in /  0mm 5 W/m2
07:10 32.5 °F /  0.3 °C 29.9 °F /  -1.2 °C 29.77in /  1008hPa ENE 4.0mph /  6.4km/h 7.0mph /  11.3km/h 90% 0.00in /  0mm 7 W/m2
07:16 32.5 °F /  0.3 °C 29.9 °F /  -1.2 °C 29.77in /  1008hPa ENE 4.0mph /  6.4km/h 7.0mph /  11.3km/h 90% 0.00in /  0mm 11 W/m2
07:22 32.5 °F /  0.3 °C 29.6 °F /  -1.3 °C 29.76in /  1007.7hPa ENE 4.0mph /  6.4km/h 5.0mph /  8km/h 89% 0.00in /  0mm 16 W/m2
07:28 32.5 °F /  0.3 °C 29.6 °F /  -1.3 °C 29.77in /  1008hPa ENE 4.0mph /  6.4km/h 5.0mph /  8km/h 89% 0.00in /  0mm 16 W/m2
07:34 32.5 °F /  0.3 °C 29.6 °F /  -1.3 °C 29.76in /  1007.7hPa East 5.0mph /  8km/h 8.0mph /  12.9km/h 89% 0.00in /  0mm 12 W/m2
07:40 32.4 °F /  0.2 °C 29.5 °F /  -1.4 °C 29.76in /  1007.7hPa NE 4.0mph /  6.4km/h 10.0mph /  16.1km/h 89% 0.00in /  0mm 12 W/m2
07:46 32.4 °F /  0.2 °C 29.5 °F /  -1.4 °C 29.76in /  1007.7hPa East 3.0mph /  4.8km/h 10.0mph /  16.1km/h 89% 0.00in /  0mm 19 W/m2
07:52 32.3 °F /  0.2 °C 29.1 °F /  -1.6 °C 29.77in /  1008hPa ENE 3.0mph /  4.8km/h 3.0mph /  4.8km/h 88% 0.00in /  0mm 21 W/m2
07:58 32.3 °F /  0.2 °C 29.1 °F /  -1.6 °C 29.77in /  1008hPa East 5.0mph /  8km/h 7.0mph /  11.3km/h 88% 0.00in /  0mm 23 W/m2
08:04 32.3 °F /  0.2 °C 29.1 °F /  -1.6 °C 29.77in /  1008hPa ENE 4.0mph /  6.4km/h 6.0mph /  9.7km/h 88% 0.00in /  0mm 33 W/m2
08:10 32.3 °F /  0.2 °C 29.1 °F /  -1.6 °C 29.76in /  1007.7hPa SSE 4.0mph /  6.4km/h 6.0mph /  9.7km/h 88% 0.00in /  0mm 40 W/m2
08:16 32.3 °F /  0.2 °C 29.1 °F /  -1.6 °C 29.77in /  1008hPa East 4.0mph /  6.4km/h 6.0mph /  9.7km/h 88% 0.00in /  0mm 37 W/m2
08:22 32.3 °F /  0.2 °C 29.1 °F /  -1.6 °C 29.76in /  1007.7hPa ENE 4.0mph /  6.4km/h 4.0mph /  6.4km/h 88% 0.00in /  0mm 39 W/m2
08:28 32.2 °F /  0.1 °C 28.8 °F /  -1.8 °C 29.76in /  1007.7hPa ENE 4.0mph /  6.4km/h 5.0mph /  8km/h 87% 0.00in /  0mm 47 W/m2
08:34 32.2 °F /  0.1 °C 28.8 °F /  -1.8 °C 29.76in /  1007.7hPa East 4.0mph /  6.4km/h 8.0mph /  12.9km/h 87% 0.00in /  0mm 53 W/m2
08:40 32.1 °F /  0.1 °C 28.7 °F /  -1.8 °C 29.76in /  1007.7hPa NNE 5.0mph /  8km/h 5.0mph /  8km/h 87% 0.00in /  0mm 58 W/m2
08:46 32.0 °F /  0 °C 28.6 °F /  -1.9 °C 29.76in /  1007.7hPa ENE 5.0mph /  8km/h 7.0mph /  11.3km/h 87% 0.00in /  0mm 70 W/m2
08:52 32.1 °F /  0.1 °C 28.7 °F /  -1.8 °C 29.76in /  1007.7hPa East 4.0mph /  6.4km/h 4.0mph /  6.4km/h 87% 0.00in /  0mm 90 W/m2
08:58 32.1 °F /  0.1 °C 28.7 °F /  -1.8 °C 29.76in /  1007.7hPa East 4.0mph /  6.4km/h 10.0mph /  16.1km/h 87% 0.00in /  0mm 102 W/m2
09:04 32.2 °F /  0.1 °C 28.8 °F /  -1.8 °C 29.76in /  1007.7hPa SE 5.0mph /  8km/h 9.0mph /  14.5km/h 87% 0.00in /  0mm 76 W/m2
09:10 32.2 °F /  0.1 °C 28.8 °F /  -1.8 °C 29.76in /  1007.7hPa ENE 4.0mph /  6.4km/h 5.0mph /  8km/h 87% 0.00in /  0mm 91 W/m2
09:16 32.2 °F /  0.1 °C 28.5 °F /  -1.9 °C 29.76in /  1007.7hPa ENE 4.0mph /  6.4km/h 8.0mph /  12.9km/h 86% 0.00in /  0mm 90 W/m2
09:22 32.1 °F /  0.1 °C 28.4 °F /  -2 °C 29.76in /  1007.7hPa ENE 4.0mph /  6.4km/h 8.0mph /  12.9km/h 86% 0.00in /  0mm 84 W/m2
09:28 32.1 °F /  0.1 °C 28.4 °F /  -2 °C 29.76in /  1007.7hPa East 5.0mph /  8km/h 8.0mph /  12.9km/h 86% 0.00in /  0mm 70 W/m2
09:34 32.1 °F /  0.1 °C 28.4 °F /  -2 °C 29.76in /  1007.7hPa ENE 5.0mph /  8km/h 10.0mph /  16.1km/h 86% 0.00in /  0mm 69 W/m2
09:40 32.0 °F /  0 °C 28.3 °F /  -2.1 °C 29.77in /  1008hPa ENE 4.0mph /  6.4km/h 4.0mph /  6.4km/h 86% 0.00in /  0mm 58 W/m2
09:46 32.0 °F /  0 °C 28.3 °F /  -2.1 °C 29.77in /  1008hPa ENE 4.0mph /  6.4km/h 8.0mph /  12.9km/h 86% 0.00in /  0mm 60 W/m2
09:52 32.0 °F /  0 °C 28.0 °F /  -2.2 °C 29.77in /  1008hPa ENE 5.0mph /  8km/h 7.0mph /  11.3km/h 85% 0.00in /  0mm 60 W/m2
09:58 32.0 °F /  0 °C 28.0 °F /  -2.2 °C 29.76in /  1007.7hPa SE 5.0mph /  8km/h 7.0mph /  11.3km/h 85% 0.00in /  0mm 79 W/m2
10:04 32.0 °F /  0 °C 28.0 °F /  -2.2 °C 29.76in /  1007.7hPa East 4.0mph /  6.4km/h 5.0mph /  8km/h 85% 0.00in /  0mm 69 W/m2
10:10 32.0 °F /  0 °C 28.0 °F /  -2.2 °C 29.76in /  1007.7hPa ENE 3.0mph /  4.8km/h 3.0mph /  4.8km/h 85% 0.00in /  0mm 65 W/m2
10:16 32.0 °F /  0 °C 28.0 °F /  -2.2 °C 29.76in /  1007.7hPa East 4.0mph /  6.4km/h 4.0mph /  6.4km/h 85% 0.00in /  0mm 69 W/m2
10:22 32.0 °F /  0 °C 28.0 °F /  -2.2 °C 29.76in /  1007.7hPa East 4.0mph /  6.4km/h 4.0mph /  6.4km/h 85% 0.00in /  0mm 70 W/m2
10:28 32.0 °F /  0 °C 28.0 °F /  -2.2 °C 29.76in /  1007.7hPa SSE 5.0mph /  8km/h 8.0mph /  12.9km/h 85% 0.00in /  0mm 76 W/m2
10:34 32.0 °F /  0 °C 28.0 °F /  -2.2 °C 29.76in /  1007.7hPa East 5.0mph /  8km/h 7.0mph /  11.3km/h 85% 0.00in /  0mm 86 W/m2
10:40 32.0 °F /  0 °C 28.0 °F /  -2.2 °C 29.76in /  1007.7hPa ENE 4.0mph /  6.4km/h 4.0mph /  6.4km/h 85% 0.00in /  0mm 84 W/m2
10:46 32.0 °F /  0 °C 28.0 °F /  -2.2 °C 29.76in /  1007.7hPa SE 5.0mph /  8km/h 6.0mph /  9.7km/h 85% 0.00in /  0mm 104 W/m2
10:52 32.1 °F /  0.1 °C 28.1 °F /  -2.2 °C 29.76in /  1007.7hPa ESE 4.0mph /  6.4km/h 4.0mph /  6.4km/h 85% 0.00in /  0mm 116 W/m2
10:58 32.0 °F /  0 °C 28.0 °F /  -2.2 °C 29.76in /  1007.7hPa NE 4.0mph /  6.4km/h 4.0mph /  6.4km/h 85% 0.00in /  0mm 116 W/m2
11:04 32.1 °F /  0.1 °C 28.1 °F /  -2.2 °C 29.76in /  1007.7hPa ENE 4.0mph /  6.4km/h 7.0mph /  11.3km/h 85% 0.00in /  0mm 121 W/m2
11:10 32.1 °F /  0.1 °C 28.1 °F /  -2.2 °C 29.76in /  1007.7hPa ENE 4.0mph /  6.4km/h 8.0mph /  12.9km/h 85% 0.00in /  0mm 139 W/m2
11:16 32.1 °F /  0.1 °C 28.4 °F /  -2 °C 29.76in /  1007.7hPa ESE 4.0mph /  6.4km/h 8.0mph /  12.9km/h 86% 0.00in /  0mm 156 W/m2
11:22 32.0 °F /  0 °C 28.3 °F /  -2.1 °C 29.76in /  1007.7hPa East 4.0mph /  6.4km/h 5.0mph /  8km/h 86% 0.00in /  0mm 149 W/m2
11:28 31.9 °F /  -0.1 °C 28.5 °F /  -1.9 °C 29.76in /  1007.7hPa SE 4.0mph /  6.4km/h 7.0mph /  11.3km/h 87% 0.00in /  0mm 134 W/m2
11:34 31.8 °F /  -0.1 °C 28.4 °F /  -2 °C 29.76in /  1007.7hPa ENE 4.0mph /  6.4km/h 8.0mph /  12.9km/h 87% 0.00in /  0mm 139 W/m2
11:40 31.7 °F /  -0.2 °C 28.3 °F /  -2.1 °C 29.76in /  1007.7hPa East 5.0mph /  8km/h 5.0mph /  8km/h 87% 0.00in /  0mm 165 W/m2
11:46 31.8 °F /  -0.1 °C 28.7 °F /  -1.8 °C 29.76in /  1007.7hPa ESE 5.0mph /  8km/h 5.0mph /  8km/h 88% 0.00in /  0mm 163 W/m2
11:52 31.8 °F /  -0.1 °C 28.7 °F /  -1.8 °C 29.76in /  1007.7hPa East 4.0mph /  6.4km/h 7.0mph /  11.3km/h 88% 0.00in /  0mm 163 W/m2
11:58 31.8 °F /  -0.1 °C 28.7 °F /  -1.8 °C 29.75in /  1007.3hPa ENE 4.0mph /  6.4km/h 7.0mph /  11.3km/h 88% 0.00in /  0mm 148 W/m2
12:04 31.8 °F /  -0.1 °C 28.7 °F /  -1.8 °C 29.75in /  1007.3hPa ESE 4.0mph /  6.4km/h 10.0mph /  16.1km/h 88% 0.00in /  0mm 195 W/m2
12:10 31.8 °F /  -0.1 °C 28.9 °F /  -1.7 °C 29.75in /  1007.3hPa ENE 5.0mph /  8km/h 7.0mph /  11.3km/h 89% 0.00in /  0mm 246 W/m2
12:16 32.1 °F /  0.1 °C 29.2 °F /  -1.6 °C 29.74in /  1007hPa East 5.0mph /  8km/h 8.0mph /  12.9km/h 89% 0.00in /  0mm 350 W/m2
12:22 32.4 °F /  0.2 °C 29.5 °F /  -1.4 °C 29.74in /  1007hPa ENE 5.0mph /  8km/h 5.0mph /  8km/h 89% 0.00in /  0mm 373 W/m2
12:28 32.8 °F /  0.4 °C 29.6 °F /  -1.3 °C 29.73in /  1006.7hPa ENE 5.0mph /  8km/h 9.0mph /  14.5km/h 88% 0.00in /  0mm 471 W/m2
12:34 33.1 °F /  0.6 °C 29.7 °F /  -1.3 °C 29.73in /  1006.7hPa ENE 5.0mph /  8km/h 8.0mph /  12.9km/h 87% 0.00in /  0mm 417 W/m2
12:40 33.1 °F /  0.6 °C 29.4 °F /  -1.4 °C 29.73in /  1006.7hPa NNE 6.0mph /  9.7km/h 6.0mph /  9.7km/h 86% 0.00in /  0mm 432 W/m2
12:46 33.4 °F /  0.8 °C 29.4 °F /  -1.4 °C 29.72in /  1006.3hPa NE 5.0mph /  8km/h 11.0mph /  17.7km/h 85% 0.00in /  0mm 364 W/m2
12:52 33.6 °F /  0.9 °C 29.6 °F /  -1.3 °C 29.73in /  1006.7hPa ENE 4.0mph /  6.4km/h 8.0mph /  12.9km/h 85% 0.00in /  0mm 334 W/m2
12:58 33.7 °F /  0.9 °C 29.4 °F /  -1.4 °C 29.73in /  1006.7hPa East 4.0mph /  6.4km/h 9.0mph /  14.5km/h 84% 0.00in /  0mm 179 W/m2
13:04 33.4 °F /  0.8 °C 29.1 °F /  -1.6 °C 29.73in /  1006.7hPa East 4.0mph /  6.4km/h 8.0mph /  12.9km/h 84% 0.00in /  0mm 125 W/m2
13:10 33.1 °F /  0.6 °C 28.8 °F /  -1.8 °C 29.73in /  1006.7hPa ENE 4.0mph /  6.4km/h 7.0mph /  11.3km/h 84% 0.00in /  0mm 109 W/m2
13:16 32.8 °F /  0.4 °C 28.5 °F /  -1.9 °C 29.73in /  1006.7hPa ESE 5.0mph /  8km/h 7.0mph /  11.3km/h 84% 0.00in /  0mm 97 W/m2
13:22 32.8 °F /  0.4 °C 28.8 °F /  -1.8 °C 29.73in /  1006.7hPa ENE 5.0mph /  8km/h 5.0mph /  8km/h 85% 0.00in /  0mm 109 W/m2
13:28 32.8 °F /  0.4 °C 28.8 °F /  -1.8 °C 29.72in /  1006.3hPa ESE 4.0mph /  6.4km/h 8.0mph /  12.9km/h 85% 0.00in /  0mm 113 W/m2
13:34 32.8 °F /  0.4 °C 28.8 °F /  -1.8 °C 29.72in /  1006.3hPa ENE 3.0mph /  4.8km/h 4.0mph /  6.4km/h 85% 0.00in /  0mm 109 W/m2
13:40 32.9 °F /  0.5 °C 28.9 °F /  -1.7 °C 29.71in /  1006hPa ENE 3.0mph /  4.8km/h 3.0mph /  4.8km/h 85% 0.00in /  0mm 121 W/m2
13:46 32.8 °F /  0.4 °C 28.8 °F /  -1.8 °C 29.71in /  1006hPa ESE 4.0mph /  6.4km/h 6.0mph /  9.7km/h 85% 0.00in /  0mm 148 W/m2
13:52 32.8 °F /  0.4 °C 28.8 °F /  -1.8 °C 29.72in /  1006.3hPa ENE 5.0mph /  8km/h 9.0mph /  14.5km/h 85% 0.00in /  0mm 102 W/m2
13:58 32.9 °F /  0.5 °C 29.2 °F /  -1.6 °C 29.73in /  1006.7hPa North 5.0mph /  8km/h 9.0mph /  14.5km/h 86% 0.00in /  0mm 105 W/m2
14:04 33.0 °F /  0.6 °C 29.3 °F /  -1.5 °C 29.73in /  1006.7hPa ENE 3.0mph /  4.8km/h 4.0mph /  6.4km/h 86% 0.00in /  0mm 100 W/m2
14:10 32.9 °F /  0.5 °C 28.9 °F /  -1.7 °C 29.73in /  1006.7hPa ENE 4.0mph /  6.4km/h 4.0mph /  6.4km/h 85% 0.00in /  0mm 104 W/m2
14:16 32.9 °F /  0.5 °C 29.2 °F /  -1.6 °C 29.73in /  1006.7hPa NE 5.0mph /  8km/h 9.0mph /  14.5km/h 86% 0.00in /  0mm 118 W/m2
14:22 33.1 °F /  0.6 °C 29.4 °F /  -1.4 °C 29.73in /  1006.7hPa ENE 4.0mph /  6.4km/h 4.0mph /  6.4km/h 86% 0.00in /  0mm 100 W/m2
14:28 33.1 °F /  0.6 °C 29.4 °F /  -1.4 °C 29.72in /  1006.3hPa ENE 3.0mph /  4.8km/h 4.0mph /  6.4km/h 86% 0.00in /  0mm 104 W/m2
14:34 33.0 °F /  0.6 °C 29.3 °F /  -1.5 °C 29.72in /  1006.3hPa East 4.0mph /  6.4km/h 4.0mph /  6.4km/h 86% 0.00in /  0mm 90 W/m2
14:40 33.0 °F /  0.6 °C 29.6 °F /  -1.3 °C 29.73in /  1006.7hPa ENE 3.0mph /  4.8km/h 3.0mph /  4.8km/h 87% 0.00in /  0mm 81 W/m2
14:46 33.0 °F /  0.6 °C 29.6 °F /  -1.3 °C 29.73in /  1006.7hPa NE 2.0mph /  3.2km/h 4.0mph /  6.4km/h 87% 0.00in /  0mm 81 W/m2
14:52 33.1 °F /  0.6 °C 29.7 °F /  -1.3 °C 29.73in /  1006.7hPa ESE 2.0mph /  3.2km/h 3.0mph /  4.8km/h 87% 0.00in /  0mm 81 W/m2
14:58 33.0 °F /  0.6 °C 29.6 °F /  -1.3 °C 29.73in /  1006.7hPa ENE 2.0mph /  3.2km/h 3.0mph /  4.8km/h 87% 0.00in /  0mm 72 W/m2
15:06 33.0 °F /  0.6 °C 29.6 °F /  -1.3 °C 29.73in /  1006.7hPa ENE 3.0mph /  4.8km/h 7.0mph /  11.3km/h 87% 0.00in /  0mm 72 W/m2
15:12 33.0 °F /  0.6 °C 29.6 °F /  -1.3 °C 29.73in /  1006.7hPa NE 4.0mph /  6.4km/h 4.0mph /  6.4km/h 87% 0.00in /  0mm 67 W/m2
15:18 33.1 °F /  0.6 °C 29.9 °F /  -1.2 °C 29.73in /  1006.7hPa SE 3.0mph /  4.8km/h 4.0mph /  6.4km/h 88% 0.00in /  0mm 63 W/m2
15:24 33.2 °F /  0.7 °C 30.0 °F /  -1.1 °C 29.73in /  1006.7hPa ENE 1.0mph /  1.6km/h 4.0mph /  6.4km/h 88% 0.00in /  0mm 69 W/m2
15:30 33.1 °F /  0.6 °C 29.9 °F /  -1.2 °C 29.73in /  1006.7hPa ENE 2.0mph /  3.2km/h 2.0mph /  3.2km/h 88% 0.00in /  0mm 77 W/m2
15:36 33.1 °F /  0.6 °C 29.9 °F /  -1.2 °C 29.73in /  1006.7hPa ENE 3.0mph /  4.8km/h 6.0mph /  9.7km/h 88% 0.00in /  0mm 79 W/m2
15:44 33.1 °F /  0.6 °C 29.9 °F /  -1.2 °C 29.73in /  1006.7hPa East 2.0mph /  3.2km/h 3.0mph /  4.8km/h 88% 0.00in /  0mm 81 W/m2
15:52 33.3 °F /  0.7 °C 30.1 °F /  -1.1 °C 29.73in /  1006.7hPa ENE 1.0mph /  1.6km/h 4.0mph /  6.4km/h 88% 0.00in /  0mm 88 W/m2
15:58 33.2 °F /  0.7 °C 30.3 °F /  -0.9 °C 29.73in /  1006.7hPa ENE 2.0mph /  3.2km/h 4.0mph /  6.4km/h 89% 0.00in /  0mm 76 W/m2
16:04 33.2 °F /  0.7 °C 30.3 °F /  -0.9 °C 29.73in /  1006.7hPa East 3.0mph /  4.8km/h 5.0mph /  8km/h 89% 0.00in /  0mm 74 W/m2
16:10 33.2 °F /  0.7 °C 30.3 °F /  -0.9 °C 29.73in /  1006.7hPa ENE 2.0mph /  3.2km/h 3.0mph /  4.8km/h 89% 0.00in /  0mm 63 W/m2
16:16 33.2 °F /  0.7 °C 30.3 °F /  -0.9 °C 29.73in /  1006.7hPa ENE 2.0mph /  3.2km/h 3.0mph /  4.8km/h 89% 0.00in /  0mm 70 W/m2
16:24 33.2 °F /  0.7 °C 30.3 °F /  -0.9 °C 29.73in /  1006.7hPa East 2.0mph /  3.2km/h 5.0mph /  8km/h 89% 0.00in /  0mm 77 W/m2
16:30 33.2 °F /  0.7 °C 30.3 °F /  -0.9 °C 29.73in /  1006.7hPa East 2.0mph /  3.2km/h 3.0mph /  4.8km/h 89% 0.00in /  0mm 81 W/m2
16:36 33.2 °F /  0.7 °C 30.3 °F /  -0.9 °C 29.73in /  1006.7hPa ENE 2.0mph /  3.2km/h 3.0mph /  4.8km/h 89% 0.00in /  0mm 67 W/m2
16:42 33.3 °F /  0.7 °C 30.4 °F /  -0.9 °C 29.73in /  1006.7hPa East 2.0mph /  3.2km/h 2.0mph /  3.2km/h 89% 0.00in /  0mm 56 W/m2
16:48 33.2 °F /  0.7 °C 30.3 °F /  -0.9 °C 29.73in /  1006.7hPa ENE 2.0mph /  3.2km/h 5.0mph /  8km/h 89% 0.00in /  0mm 49 W/m2
16:54 33.2 °F /  0.7 °C 30.3 °F /  -0.9 °C 29.73in /  1006.7hPa East 3.0mph /  4.8km/h 3.0mph /  4.8km/h 89% 0.00in /  0mm 39 W/m2
17:00 33.2 °F /  0.7 °C 30.3 °F /  -0.9 °C 29.73in /  1006.7hPa ENE 2.0mph /  3.2km/h 3.0mph /  4.8km/h 89% 0.00in /  0mm 32 W/m2
17:06 33.2 °F /  0.7 °C 30.0 °F /  -1.1 °C 29.73in /  1006.7hPa East 2.0mph /  3.2km/h 5.0mph /  8km/h 88% 0.00in /  0mm 28 W/m2
17:12 33.2 °F /  0.7 °C 30.0 °F /  -1.1 °C 29.73in /  1006.7hPa ENE 3.0mph /  4.8km/h 4.0mph /  6.4km/h 88% 0.00in /  0mm 26 W/m2
17:18 33.1 °F /  0.6 °C 29.9 °F /  -1.2 °C 29.73in /  1006.7hPa East 3.0mph /  4.8km/h 4.0mph /  6.4km/h 88% 0.00in /  0mm 19 W/m2
17:24 33.2 °F /  0.7 °C 30.0 °F /  -1.1 °C 29.73in /  1006.7hPa South 3.0mph /  4.8km/h 3.0mph /  4.8km/h 88% 0.00in /  0mm 16 W/m2
17:30 33.2 °F /  0.7 °C 29.8 °F /  -1.2 °C 29.74in /  1007hPa East 3.0mph /  4.8km/h 3.0mph /  4.8km/h 87% 0.00in /  0mm 12 W/m2
17:36 33.2 °F /  0.7 °C 29.8 °F /  -1.2 °C 29.74in /  1007hPa ESE 2.0mph /  3.2km/h 3.0mph /  4.8km/h 87% 0.00in /  0mm 9 W/m2
17:42 33.1 °F /  0.6 °C 29.7 °F /  -1.3 °C 29.74in /  1007hPa SE 2.0mph /  3.2km/h 4.0mph /  6.4km/h 87% 0.00in /  0mm 5 W/m2
17:48 33.1 °F /  0.6 °C 29.7 °F /  -1.3 °C 29.74in /  1007hPa SE 2.0mph /  3.2km/h 4.0mph /  6.4km/h 87% 0.00in /  0mm 5 W/m2
17:54 33.1 °F /  0.6 °C 29.7 °F /  -1.3 °C 29.74in /  1007hPa SE 1.0mph /  1.6km/h 5.0mph /  8km/h 87% 0.00in /  0mm 0 W/m2
18:00 33.1 °F /  0.6 °C 29.7 °F /  -1.3 °C 29.74in /  1007hPa East 1.0mph /  1.6km/h 1.0mph /  1.6km/h 87% 0.00in /  0mm 0 W/m2
18:06 33.2 °F /  0.7 °C 29.8 °F /  -1.2 °C 29.74in /  1007hPa ENE 2.0mph /  3.2km/h 3.0mph /  4.8km/h 87% 0.00in /  0mm 0 W/m2
18:12 33.3 °F /  0.7 °C 29.6 °F /  -1.3 °C 29.74in /  1007hPa ESE 3.0mph /  4.8km/h 3.0mph /  4.8km/h 86% 0.00in /  0mm 0 W/m2
18:18 33.3 °F /  0.7 °C 29.6 °F /  -1.3 °C 29.75in /  1007.3hPa ESE 2.0mph /  3.2km/h 3.0mph /  4.8km/h 86% 0.00in /  0mm 0 W/m2
18:24 33.2 °F /  0.7 °C 29.5 °F /  -1.4 °C 29.75in /  1007.3hPa ESE 2.0mph /  3.2km/h 2.0mph /  3.2km/h 86% 0.00in /  0mm 0 W/m2
18:30 33.2 °F /  0.7 °C 29.5 °F /  -1.4 °C 29.75in /  1007.3hPa ENE 1.0mph /  1.6km/h 1.0mph /  1.6km/h 86% 0.00in /  0mm 0 W/m2
18:36 33.2 °F /  0.7 °C 29.5 °F /  -1.4 °C 29.75in /  1007.3hPa ESE 1.0mph /  1.6km/h 1.0mph /  1.6km/h 86% 0.00in /  0mm 0 W/m2
18:42 33.2 °F /  0.7 °C 29.5 °F /  -1.4 °C 29.75in /  1007.3hPa East 1.0mph /  1.6km/h 2.0mph /  3.2km/h 86% 0.00in /  0mm 0 W/m2
18:48 33.1 °F /  0.6 °C 29.4 °F /  -1.4 °C 29.75in /  1007.3hPa ENE 2.0mph /  3.2km/h 2.0mph /  3.2km/h 86% 0.00in /  0mm 0 W/m2
18:54 33.1 °F /  0.6 °C 29.4 °F /  -1.4 °C 29.76in /  1007.7hPa ESE 2.0mph /  3.2km/h 3.0mph /  4.8km/h 86% 0.00in /  0mm 0 W/m2
19:00 33.1 °F /  0.6 °C 29.4 °F /  -1.4 °C 29.76in /  1007.7hPa ESE 2.0mph /  3.2km/h 2.0mph /  3.2km/h 86% 0.00in /  0mm 0 W/m2
19:06 33.1 °F /  0.6 °C 29.4 °F /  -1.4 °C 29.76in /  1007.7hPa East 2.0mph /  3.2km/h 3.0mph /  4.8km/h 86% 0.00in /  0mm 0 W/m2
19:12 33.0 °F /  0.6 °C 29.3 °F /  -1.5 °C 29.76in /  1007.7hPa ENE 1.0mph /  1.6km/h 3.0mph /  4.8km/h 86% 0.00in /  0mm 0 W/m2
19:18 33.0 °F /  0.6 °C 29.3 °F /  -1.5 °C 29.76in /  1007.7hPa East 1.0mph /  1.6km/h 3.0mph /  4.8km/h 86% 0.00in /  0mm 0 W/m2
19:24 33.0 °F /  0.6 °C 29.3 °F /  -1.5 °C 29.76in /  1007.7hPa East 1.0mph /  1.6km/h 1.0mph /  1.6km/h 86% 0.00in /  0mm 0 W/m2
19:30 33.0 °F /  0.6 °C 29.3 °F /  -1.5 °C 29.75in /  1007.3hPa East 1.0mph /  1.6km/h 2.0mph /  3.2km/h 86% 0.00in /  0mm 0 W/m2
19:36 33.0 °F /  0.6 °C 29.3 °F /  -1.5 °C 29.75in /  1007.3hPa SE 2.0mph /  3.2km/h 3.0mph /  4.8km/h 86% 0.00in /  0mm 0 W/m2
19:42 33.0 °F /  0.6 °C 29.0 °F /  -1.7 °C 29.75in /  1007.3hPa East 2.0mph /  3.2km/h 2.0mph /  3.2km/h 85% 0.00in /  0mm 0 W/m2
19:48 33.0 °F /  0.6 °C 29.0 °F /  -1.7 °C 29.75in /  1007.3hPa East 1.0mph /  1.6km/h 5.0mph /  8km/h 85% 0.00in /  0mm 0 W/m2
19:54 33.0 °F /  0.6 °C 29.0 °F /  -1.7 °C 29.75in /  1007.3hPa East 2.0mph /  3.2km/h 3.0mph /  4.8km/h 85% 0.00in /  0mm 0 W/m2
20:00 32.9 °F /  0.5 °C 28.9 °F /  -1.7 °C 29.75in /  1007.3hPa ENE 1.0mph /  1.6km/h 2.0mph /  3.2km/h 85% 0.00in /  0mm 0 W/m2
20:06 33.0 °F /  0.6 °C 29.0 °F /  -1.7 °C 29.76in /  1007.7hPa ENE 2.0mph /  3.2km/h 4.0mph /  6.4km/h 85% 0.00in /  0mm 0 W/m2
20:12 32.9 °F /  0.5 °C 28.9 °F /  -1.7 °C 29.76in /  1007.7hPa East 2.0mph /  3.2km/h 3.0mph /  4.8km/h 85% 0.00in /  0mm 0 W/m2
20:18 32.9 °F /  0.5 °C 28.9 °F /  -1.7 °C 29.76in /  1007.7hPa East 2.0mph /  3.2km/h 3.0mph /  4.8km/h 85% 0.00in /  0mm 0 W/m2
20:24 32.8 °F /  0.4 °C 28.8 °F /  -1.8 °C 29.76in /  1007.7hPa ENE 2.0mph /  3.2km/h 3.0mph /  4.8km/h 85% 0.00in /  0mm 0 W/m2
20:30 32.8 °F /  0.4 °C 28.8 °F /  -1.8 °C 29.76in /  1007.7hPa East 2.0mph /  3.2km/h 3.0mph /  4.8km/h 85% 0.00in /  0mm 0 W/m2
20:36 32.7 °F /  0.4 °C 28.7 °F /  -1.8 °C 29.76in /  1007.7hPa East 1.0mph /  1.6km/h 3.0mph /  4.8km/h 85% 0.00in /  0mm 0 W/m2
20:42 32.7 °F /  0.4 °C 28.7 °F /  -1.8 °C 29.76in /  1007.7hPa ENE 1.0mph /  1.6km/h 1.0mph /  1.6km/h 85% 0.00in /  0mm 0 W/m2
20:48 32.7 °F /  0.4 °C 28.7 °F /  -1.8 °C 29.76in /  1007.7hPa ENE 1.0mph /  1.6km/h 1.0mph /  1.6km/h 85% 0.00in /  0mm 0 W/m2
20:54 32.6 °F /  0.3 °C 28.6 °F /  -1.9 °C 29.76in /  1007.7hPa East 1.0mph /  1.6km/h 2.0mph /  3.2km/h 85% 0.00in /  0mm 0 W/m2
21:00 32.6 °F /  0.3 °C 28.9 °F /  -1.7 °C 29.76in /  1007.7hPa ENE 1.0mph /  1.6km/h 1.0mph /  1.6km/h 86% 0.00in /  0mm 0 W/m2
21:06 32.5 °F /  0.3 °C 28.8 °F /  -1.8 °C 29.75in /  1007.3hPa East 1.0mph /  1.6km/h 3.0mph /  4.8km/h 86% 0.00in /  0mm 0 W/m2
21:12 32.5 °F /  0.3 °C 28.8 °F /  -1.8 °C 29.75in /  1007.3hPa East 1.0mph /  1.6km/h 1.0mph /  1.6km/h 86% 0.00in /  0mm 0 W/m2
21:18 32.5 °F /  0.3 °C 28.8 °F /  -1.8 °C 29.76in /  1007.7hPa ENE 1.0mph /  1.6km/h 2.0mph /  3.2km/h 86% 0.00in /  0mm 0 W/m2
21:24 32.5 °F /  0.3 °C 28.8 °F /  -1.8 °C 29.75in /  1007.3hPa ENE 2.0mph /  3.2km/h 3.0mph /  4.8km/h 86% 0.00in /  0mm 0 W/m2
21:30 32.5 °F /  0.3 °C 28.8 °F /  -1.8 °C 29.75in /  1007.3hPa ESE 1.0mph /  1.6km/h 1.0mph /  1.6km/h 86% 0.00in /  0mm 0 W/m2
21:36 32.4 °F /  0.2 °C 28.7 °F /  -1.8 °C 29.75in /  1007.3hPa East 1.0mph /  1.6km/h 2.0mph /  3.2km/h 86% 0.00in /  0mm 0 W/m2
21:42 32.4 °F /  0.2 °C 28.7 °F /  -1.8 °C 29.75in /  1007.3hPa ENE 1.0mph /  1.6km/h 1.0mph /  1.6km/h 86% 0.00in /  0mm 0 W/m2
21:48 32.4 °F /  0.2 °C 28.7 °F /  -1.8 °C 29.75in /  1007.3hPa East 1.0mph /  1.6km/h 3.0mph /  4.8km/h 86% 0.00in /  0mm 0 W/m2
21:54 32.3 °F /  0.2 °C 28.6 °F /  -1.9 °C 29.75in /  1007.3hPa East 1.0mph /  1.6km/h 3.0mph /  4.8km/h 86% 0.00in /  0mm 0 W/m2
22:00 32.3 °F /  0.2 °C 28.6 °F /  -1.9 °C 29.75in /  1007.3hPa East 1.0mph /  1.6km/h 2.0mph /  3.2km/h 86% 0.00in /  0mm 0 W/m2
22:06 32.2 °F /  0.1 °C 28.5 °F /  -1.9 °C 29.75in /  1007.3hPa ESE 2.0mph /  3.2km/h 4.0mph /  6.4km/h 86% 0.00in /  0mm 0 W/m2
22:12 32.2 °F /  0.1 °C 28.5 °F /  -1.9 °C 29.75in /  1007.3hPa ENE 2.0mph /  3.2km/h 3.0mph /  4.8km/h 86% 0.00in /  0mm 0 W/m2
22:18 32.1 °F /  0.1 °C 28.7 °F /  -1.8 °C 29.75in /  1007.3hPa ESE 2.0mph /  3.2km/h 3.0mph /  4.8km/h 87% 0.00in /  0mm 0 W/m2
22:24 32.1 °F /  0.1 °C 28.7 °F /  -1.8 °C 29.75in /  1007.3hPa ESE 1.0mph /  1.6km/h 2.0mph /  3.2km/h 87% 0.00in /  0mm 0 W/m2
22:30 32.1 °F /  0.1 °C 28.7 °F /  -1.8 °C 29.75in /  1007.3hPa ESE 1.0mph /  1.6km/h 1.0mph /  1.6km/h 87% 0.00in /  0mm 0 W/m2
22:36 32.0 °F /  0 °C 28.6 °F /  -1.9 °C 29.75in /  1007.3hPa ESE 1.0mph /  1.6km/h 1.0mph /  1.6km/h 87% 0.00in /  0mm 0 W/m2
22:42 32.0 °F /  0 °C 28.6 °F /  -1.9 °C 29.75in /  1007.3hPa Calm     87% 0.00in /  0mm 0 W/m2
22:48 31.9 °F /  -0.1 °C 28.5 °F /  -1.9 °C 29.75in /  1007.3hPa Calm     87% 0.00in /  0mm 0 W/m2
22:54 31.9 °F /  -0.1 °C 28.8 °F /  -1.8 °C 29.75in /  1007.3hPa Calm     88% 0.00in /  0mm 0 W/m2
23:00 31.9 °F /  -0.1 °C 28.8 °F /  -1.8 °C 29.75in /  1007.3hPa Calm     88% 0.00in /  0mm 0 W/m2
23:06 31.9 °F /  -0.1 °C 28.8 °F /  -1.8 °C 29.75in /  1007.3hPa Calm   3.0mph /  4.8km/h 88% 0.00in /  0mm 0 W/m2
23:12 31.8 °F /  -0.1 °C 28.7 °F /  -1.8 °C 29.75in /  1007.3hPa ESE 1.0mph /  1.6km/h 1.0mph /  1.6km/h 88% 0.00in /  0mm 0 W/m2
23:18 31.8 °F /  -0.1 °C 28.7 °F /  -1.8 °C 29.75in /  1007.3hPa Calm   1.0mph /  1.6km/h 88% 0.00in /  0mm 0 W/m2
23:24 31.8 °F /  -0.1 °C 28.7 °F /  -1.8 °C 29.74in /  1007hPa Calm   1.0mph /  1.6km/h 88% 0.00in /  0mm 0 W/m2
23:30 31.8 °F /  -0.1 °C 28.7 °F /  -1.8 °C 29.74in /  1007hPa ESE 1.0mph /  1.6km/h 1.0mph /  1.6km/h 88% 0.00in /  0mm 0 W/m2
23:36 31.7 °F /  -0.2 °C 28.6 °F /  -1.9 °C 29.74in /  1007hPa East 1.0mph /  1.6km/h 3.0mph /  4.8km/h 88% 0.00in /  0mm 0 W/m2
23:42 31.7 °F /  -0.2 °C 28.6 °F /  -1.9 °C 29.74in /  1007hPa East 1.0mph /  1.6km/h 1.0mph /  1.6km/h 88% 0.00in /  0mm 0 W/m2
23:48 31.7 °F /  -0.2 °C 28.6 °F /  -1.9 °C 29.74in /  1007hPa East 1.0mph /  1.6km/h 1.0mph /  1.6km/h 88% 0.00in /  0mm 0 W/m2
23:54 31.7 °F /  -0.2 °C 28.6 °F /  -1.9 °C 29.74in /  1007hPa East 1.0mph /  1.6km/h 2.0mph /  3.2km/h 88% 0.00in /  0mm 0 W/m2
Country Meadow, Clay, NY, USA
Compliments of Weather Underground - 2 mb